TimeMST,TemperatureF,Dew PointF,Humidity,Sea Level PressureIn,VisibilityMPH,Wind Direction,Wind SpeedMPH,Gust SpeedMPH,PrecipitationIn,Events,Conditions,WindDirDegrees,DateUTC
12:14 AM,26.6,21.2,80,29.77,10.0,West,11.5,-,N/A,,Overcast,270,2012-12-11 07:14:00
12:29 AM,24.8,19.4,80,29.77,10.0,West,11.5,-,N/A,,Mostly Cloudy,280,2012-12-11 07:29:00
12:53 AM,26.1,19.9,78,29.86,10.0,West,12.7,-,N/A,,Overcast,280,2012-12-11 07:53:00
1:53 AM,27.0,19.9,75,29.86,10.0,WNW,11.5,-,N/A,,Overcast,290,2012-12-11 08:53:00
2:32 AM,19.4,15.8,86,29.77,10.0,West,9.2,-,N/A,,Scattered Clouds,260,2012-12-11 09:32:00
2:53 AM,19.0,15.1,85,29.88,10.0,West,9.2,-,N/A,,Clear,280,2012-12-11 09:53:00
3:29 AM,15.8,12.2,86,29.76,10.0,West,5.8,-,N/A,,Mostly Cloudy,280,2012-12-11 10:29:00
3:53 AM,15.1,10.9,84,29.88,10.0,West,6.9,-,N/A,,Mostly Cloudy,280,2012-12-11 10:53:00
4:12 AM,15.8,12.2,86,29.76,10.0,NW,4.6,-,N/A,,Mostly Cloudy,310,2012-12-11 11:12:00
4:46 AM,15.8,12.2,86,29.77,10.0,West,9.2,-,N/A,,Overcast,280,2012-12-11 11:46:00
4:53 AM,17.1,12.9,84,29.88,10.0,West,10.4,-,N/A,,Overcast,280,2012-12-11 11:53:00
5:30 AM,12.2,10.4,92,29.77,10.0,WNW,5.8,-,N/A,,Scattered Clouds,290,2012-12-11 12:30:00
5:53 AM,10.0,7.0,87,29.89,10.0,West,8.1,-,N/A,,Clear,270,2012-12-11 12:53:00
6:53 AM,10.0,5.0,80,29.88,10.0,Calm,Calm,-,N/A,,Clear,0,2012-12-11 13:53:00
7:53 AM,8.1,5.0,87,29.87,10.0,Calm,Calm,-,N/A,,Partly Cloudy,0,2012-12-11 14:53:00
8:53 AM,15.1,12.0,88,29.88,10.0,South,3.5,-,N/A,,Partly Cloudy,180,2012-12-11 15:53:00
9:53 AM,19.9,14.0,78,29.86,10.0,SW,3.5,-,N/A,,Clear,230,2012-12-11 16:53:00
10:53 AM,24.1,16.0,71,29.82,10.0,SSW,4.6,-,N/A,,Clear,210,2012-12-11 17:53:00
11:53 AM,26.1,17.1,69,29.78,10.0,South,3.5,-,N/A,,Clear,180,2012-12-11 18:53:00
12:53 PM,28.9,18.0,64,29.76,10.0,South,9.2,-,N/A,,Clear,180,2012-12-11 19:53:00
1:53 PM,30.9,19.0,61,29.73,10.0,SSE,5.8,-,N/A,,Clear,160,2012-12-11 20:53:00
2:53 PM,28.9,19.0,67,29.73,10.0,SSE,6.9,-,N/A,,Mostly Cloudy,160,2012-12-11 21:53:00
3:53 PM,27.0,19.0,72,29.73,10.0,SE,3.5,-,N/A,,Mostly Cloudy,130,2012-12-11 22:53:00
5:53 PM,27.0,17.1,66,29.72,10.0,South,12.7,18.4,N/A,,Overcast,190,2012-12-12 00:53:00
6:53 PM,27.0,18.0,69,29.70,10.0,South,4.6,-,N/A,,Overcast,170,2012-12-12 01:53:00
7:53 PM,28.0,19.9,72,29.68,10.0,South,8.1,-,N/A,,Overcast,180,2012-12-12 02:53:00
8:53 PM,28.9,19.9,69,29.66,10.0,South,4.6,-,N/A,,Overcast,190,2012-12-12 03:53:00
9:53 PM,30.0,19.9,66,29.64,10.0,Calm,Calm,-,N/A,,Overcast,0,2012-12-12 04:53:00
10:53 PM,28.9,19.9,69,29.63,10.0,Calm,Calm,-,N/A,,Overcast,0,2012-12-12 05:53:00
11:53 PM,30.0,19.9,66,29.63,10.0,WSW,4.6,-,N/A,,Overcast,240,2012-12-12 06:53:00